الصفحة الرئيسية
METAR-TAF:

METAR-TAF

مطار :

مطار أوكلاند الدولي

أوكلاند, نيوزيلندا

دائرة عرض: 37-01S, خط طول: 174-48E, ارتفاع: 7 متر

مراقبة الطقس الحالي

تاريخ ووقت الإصدار 17 دقيقة قبل الساعة 00:30UTC
ريح 2 عقدة من الشمال
درجة الحرارة 24°درجة مئوية
الرطوبة 61%
ضغط 1024 hPa
الرؤية 10 كم أو أكثر

METAR: NZAA 170030Z AUTO 36002KT 9999 BKN032/// 24/16 Q1024 BECMG 23010KT

زمن: 13:47 (00:47 UTC)

توقعات

تاريخ ووقت الإصدار 1ساعة و 46 دقيقة قبل الساعة 23:01UTC
التوقعات صالحة من17 الساعة 00 UTC إلى 18 الساعة 00 UTC
ريح 10 عقدة من الجنوب الغربي
الرؤية 10 كم أو أكثر
غيوم متفرقة على ارتفاع 3000 قدم
زخات من الأمطار الخفيفة
من 17 الساعة 0900 UTC
ريح 2 عقدةمن اتجاهات متغيرة
الرؤية 10 كم أو أكثر
غيوم قليلة على ارتفاع 4000 قدم
نظرية الاحتمالات 30%
من 17 الساعة 16 UTC إلى 17 الساعة 19 UTC
غيوم مفككة على ارتفاع 1400 قدم
أصبح
من 17 الساعة 22 UTC إلى 18 الساعة 00 UTC
ريح 10 عقدة من الغرب/الجنوب الغربي

TAF: NZAA 162301Z 1700/1800 23010KT 9999 -SHRA SCT030 FM170900 VRB02KT 9999 FEW040 PROB30 1716/1719 BKN014 BECMG 1722/1800 24010KT

أرصاد الطقس والتوقعات من أكثر من 4000 مطار (تقارير الطقس للمطار METAR والتنبؤ بالطقس بالمطارTAF).

المحطات المتاحة هي النقط الصفراء والحمراء على الخريطة.

حرك المؤشر فوق النقطة لمعرفة اسم المحطة.

ثم انقر لمعرفة أرصاد وتوقعات الطقس.

لتغيير الخارطة: اضغط على الأزرار الخضراء مع رمز الصليب الأسود للتكبير. على الزر الأخضر مع شرطة للتصغير، أو على الأسهم الخضراء للخرائط المجاورة.


METAR-TAF: